Terminal Aerodrome Forecast
Issued by NWS Grand Forks, ND

Home | Current Version | Previous Version | Graphics & Text | Print | Product List | Glossary On
Versions: 1 2 3 4 5 6 7 8 9 10 11 12 13 14
000
FTUS43 KFGF 271724
TAFGFK
TAF
KGFK 271724Z 2718/2818 18011KT P6SM BKN008 BKN015
      TEMPO 2718/2721 SCT008 BKN015
     FM272100 19010KT P6SM VCTS SCT015CB BKN250
     FM280100 17006KT P6SM FEW250
     FM281500 16012KT P6SM SCT200=

USA.gov is the U.S. government's official web portal to all federal, state and local government web resources and services.